createdAt,value
2022-09-10T00:01:25.002Z,100289.88
2022-09-10T00:03:53.475Z,100289.88
2022-09-10T00:06:20.909Z,100284.44
2022-09-10T00:08:49.019Z,100286.09
2022-09-10T00:11:15.954Z,100290.72
2022-09-10T00:13:43.115Z,100282.56
2022-09-10T00:16:13.275Z,100277.75
2022-09-10T00:18:41.143Z,100278.56
2022-09-10T00:21:11.921Z,100281.91
2022-09-10T00:23:39.214Z,100281.09
2022-09-10T00:26:27.930Z,100283.34
2022-09-10T00:28:56.412Z,100279.81
2022-09-10T00:31:24.034Z,100276.84
2022-09-10T00:33:51.330Z,100281.47
2022-09-10T00:36:24.015Z,100278.53
2022-09-10T00:38:51.981Z,100284.81
2022-09-10T00:41:20.257Z,100285.41
2022-09-10T00:43:49.820Z,100291.25
2022-09-10T00:46:28.821Z,100291.84
2022-09-10T00:48:58.504Z,100292.47
2022-09-10T00:51:26.680Z,100295.56
2022-09-10T00:53:54.303Z,100291.78
2022-09-10T00:56:21.612Z,100300.56
2022-09-10T00:58:49.207Z,100301.19
2022-09-10T01:01:16.627Z,100296.94
2022-09-10T01:03:44.671Z,100308.44
2022-09-10T01:06:11.325Z,100301.72
2022-09-10T01:08:38.296Z,100295.06
2022-09-10T01:11:24.102Z,100295.44
2022-09-10T01:14:24.289Z,100298.56
2022-09-10T01:17:12.171Z,100296.22
2022-09-10T01:20:00.594Z,100299.56
2022-09-10T01:23:04.775Z,100296.38
2022-09-10T01:25:48.476Z,100300.78
2022-09-10T01:28:27.297Z,100307.66
2022-09-10T01:31:01.905Z,100303.06
2022-09-10T01:33:34.317Z,100309.94
2022-09-10T01:36:06.859Z,100321.63
2022-09-10T01:38:36.740Z,100306.97
2022-09-10T01:41:03.355Z,100317.66
2022-09-10T01:43:30.458Z,100309.50
2022-09-10T01:46:14.896Z,100312.59
2022-09-10T01:49:00.650Z,100313.41
2022-09-10T01:51:52.990Z,100310.28
2022-09-10T01:54:37.073Z,100309.19
2022-09-10T01:57:39.057Z,100308.13
2022-09-10T02:00:12.249Z,100308.13
2022-09-10T02:02:53.372Z,100306.28
2022-09-10T02:05:23.620Z,100303.56
2022-09-10T02:07:55.278Z,100312.53
2022-09-10T02:10:22.715Z,100311.91
2022-09-10T02:12:49.698Z,100307.31
2022-09-10T02:15:18.798Z,100304.59
2022-09-10T02:17:46.662Z,100308.13
2022-09-10T02:20:14.736Z,100306.47
2022-09-10T02:22:49.940Z,100302.69
2022-09-10T02:25:16.423Z,100301.03
2022-09-10T02:27:43.978Z,100300.22
2022-09-10T02:30:11.761Z,100311.31
2022-09-10T02:32:38.149Z,100315.09
2022-09-10T02:35:05.352Z,100314.25
2022-09-10T02:37:31.781Z,100317.81
2022-09-10T02:39:58.197Z,100316.13
2022-09-10T02:42:26.957Z,100316.75
2022-09-10T02:44:53.906Z,100318.44
2022-09-10T02:47:20.326Z,100320.09
2022-09-10T02:49:46.888Z,100313.56
2022-09-10T02:52:13.345Z,100312.53
2022-09-10T02:54:40.184Z,100310.66
2022-09-10T02:57:07.606Z,100306.03
2022-09-10T02:59:34.141Z,100303.09
2022-09-10T03:02:00.692Z,100300.13
2022-09-10T03:04:27.147Z,100306.19
2022-09-10T03:06:54.920Z,100296.38
2022-09-10T03:09:22.577Z,100290.94
2022-09-10T03:11:49.838Z,100290.94
2022-09-10T03:14:20.262Z,100290.09
2022-09-10T03:16:47.952Z,100300.13
2022-09-10T03:19:15.477Z,100294.94
2022-09-10T03:21:42.267Z,100294.13
2022-09-10T03:24:13.389Z,100299.56
2022-09-10T03:26:43.604Z,100297.25
2022-09-10T03:29:10.595Z,100301.03
2022-09-10T03:31:37.271Z,100299.41
2022-09-10T03:34:04.130Z,100302.13
2022-09-10T03:36:33.084Z,100297.72
2022-09-10T03:38:59.526Z,100300.44
2022-09-10T03:41:28.431Z,100299.59
2022-09-10T03:43:55.736Z,100292.50
2022-09-10T03:46:22.670Z,100291.91
2022-09-10T03:48:53.280Z,100291.06
2022-09-10T03:51:21.610Z,100290.47
2022-09-10T03:53:48.158Z,100297.78
2022-09-10T03:56:15.455Z,100289.00
2022-09-10T03:58:41.845Z,100301.16
2022-09-10T04:01:08.605Z,100308.69
2022-09-10T04:03:35.040Z,100300.78
2022-09-10T04:06:01.446Z,100311.88
2022-09-10T04:08:27.875Z,100307.50
2022-09-10T04:10:57.024Z,100313.75
2022-09-10T04:13:23.489Z,100311.88
2022-09-10T04:15:50.022Z,100318.38
2022-09-10T04:18:16.405Z,100310.22
2022-09-10T04:20:46.556Z,100315.41
2022-09-10T04:23:13.034Z,100320.84
2022-09-10T04:25:39.474Z,100318.97
2022-09-10T04:28:06.036Z,100317.94
2022-09-10T04:30:32.446Z,100323.38
2022-09-10T04:32:59.006Z,100326.69
2022-09-10T04:35:26.577Z,100316.66
2022-09-10T04:37:52.950Z,100326.69
2022-09-10T04:40:19.365Z,100324.56
2022-09-10T04:42:45.764Z,100319.13
2022-09-10T04:45:12.284Z,100324.56
2022-09-10T04:47:38.695Z,100328.97
2022-09-10T04:50:06.429Z,100328.72
2022-09-10T04:52:33.346Z,100326.25
2022-09-10T04:54:59.762Z,100334.16
2022-09-10T04:57:26.138Z,100335.00
2022-09-10T04:59:55.752Z,100340.44
2022-09-10T05:02:22.205Z,100336.69
2022-09-10T05:04:48.651Z,100332.88
2022-09-10T05:07:15.033Z,100337.28
2022-09-10T05:09:41.487Z,100331.84
2022-09-10T05:12:08.036Z,100334.56
2022-09-10T05:14:34.434Z,100340.84
2022-09-10T05:17:01.516Z,100337.28
2022-09-10T05:19:27.884Z,100336.22
2022-09-10T05:21:54.277Z,100346.03
2022-09-10T05:24:21.133Z,100339.16
2022-09-10T05:26:47.526Z,100340.00
2022-09-10T05:29:14.129Z,100337.28
2022-09-10T05:31:40.934Z,100336.22
2022-09-10T05:34:08.426Z,100332.69
2022-09-10T05:36:35.494Z,100338.94
2022-09-10T05:39:06.127Z,100338.13
2022-09-10T05:41:32.687Z,100341.66
2022-09-10T05:43:59.826Z,100341.66
2022-09-10T05:46:26.798Z,100345.22
2022-09-10T05:48:54.261Z,100351.47
2022-09-10T05:51:22.233Z,100347.72
2022-09-10T05:53:49.879Z,100352.91
2022-09-10T05:56:16.766Z,100354.59
2022-09-10T05:58:45.204Z,100353.53
2022-09-10T06:01:11.814Z,100350.59
2022-09-10T06:03:38.185Z,100362.09
2022-09-10T06:06:06.138Z,100354.78
2022-09-10T06:08:32.670Z,100356.22
2022-09-10T06:11:04.114Z,100353.50
2022-09-10T06:13:31.774Z,100362.25
2022-09-10T06:15:59.375Z,100360.38
2022-09-10T06:18:25.786Z,100362.03
2022-09-10T06:21:24.967Z,100360.53
2022-09-10T06:23:57.105Z,100360.53
2022-09-10T06:26:23.511Z,100367.63
2022-09-10T06:28:49.997Z,100366.56
2022-09-10T06:31:20.062Z,100372.00
2022-09-10T06:33:48.855Z,100378.06
2022-09-10T06:36:15.854Z,100373.25
2022-09-10T06:38:45.103Z,100370.06
2022-09-10T06:41:13.937Z,100376.13
2022-09-10T06:43:41.450Z,100380.28
2022-09-10T06:46:32.000Z,100370.84
2022-09-10T06:49:00.976Z,100380.22
2022-09-10T06:51:27.477Z,100376.22
2022-09-10T06:53:53.883Z,100374.09
2022-09-10T06:56:20.931Z,100371.75
2022-09-10T06:58:47.364Z,100377.59
2022-09-10T07:01:19.284Z,100376.69
2022-09-10T07:03:46.432Z,100378.13
2022-09-10T07:06:17.363Z,100379.97
2022-09-10T07:08:44.214Z,100378.47
2022-09-10T07:11:12.919Z,100372.34
2022-09-10T07:13:40.696Z,100372.72
2022-09-10T07:16:07.186Z,100366.63
2022-09-10T07:18:34.243Z,100377.03
2022-09-10T07:21:15.247Z,100375.53
2022-09-10T07:23:41.829Z,100373.41
2022-09-10T07:26:13.805Z,100370.81
2022-09-10T07:28:42.389Z,100375.59
2022-09-10T07:31:18.871Z,100372.81
2022-09-10T07:33:46.989Z,100379.44
2022-09-10T07:36:14.528Z,100383.97
2022-09-10T07:38:42.014Z,100388.53
2022-09-10T07:41:11.361Z,100382.16
2022-09-10T07:43:41.745Z,100379.34
2022-09-10T07:46:13.717Z,100390.38
2022-09-10T07:48:41.435Z,100389.50
2022-09-10T07:51:08.835Z,100393.19
2022-09-10T07:53:35.785Z,100392.25
2022-09-10T07:56:04.982Z,100398.44
2022-09-10T07:58:32.974Z,100401.31
2022-09-10T08:01:00.245Z,100394.91
2022-09-10T08:03:27.850Z,100391.88
2022-09-10T08:05:55.328Z,100388.81
2022-09-10T08:08:22.326Z,100389.06
2022-09-10T08:10:49.672Z,100386.00
2022-09-10T08:13:16.416Z,100387.56
2022-09-10T08:15:44.711Z,100396.44
2022-09-10T08:18:13.543Z,100392.81
2022-09-10T08:20:40.731Z,100388.28
2022-09-10T08:23:07.679Z,100401.00
2022-09-10T08:25:34.876Z,100406.56
2022-09-10T08:28:01.341Z,100409.91
2022-09-10T08:30:28.561Z,100408.34
2022-09-10T08:32:56.159Z,100412.50
2022-09-10T08:35:22.571Z,100409.53
2022-09-10T08:37:49.014Z,100418.31
2022-09-10T08:40:16.367Z,100414.53
2022-09-10T08:42:49.451Z,100423.06
2022-09-10T08:45:21.027Z,100417.38
2022-09-10T08:48:08.749Z,100422.13
2022-09-10T08:50:41.370Z,100418.09
2022-09-10T08:53:23.058Z,100427.44
2022-09-10T08:55:50.711Z,100429.94
2022-09-10T08:58:23.278Z,100429.69
2022-09-10T09:00:55.754Z,100440.03
2022-09-10T09:03:32.683Z,100437.19
2022-09-10T09:06:01.611Z,100439.34
2022-09-10T09:08:41.072Z,100443.59
2022-09-10T09:11:20.139Z,100442.41
2022-09-10T09:14:08.350Z,100450.84
2022-09-10T09:17:01.402Z,100451.09
2022-09-10T09:19:44.850Z,100451.56
2022-09-10T09:22:27.367Z,100449.53
2022-09-10T09:25:00.744Z,100452.97
2022-09-10T09:27:33.750Z,100444.66
2022-09-10T09:30:06.771Z,100446.78
2022-09-10T09:32:37.161Z,100444.31
2022-09-10T09:35:25.216Z,100449.91
2022-09-10T09:38:06.919Z,100449.53
2022-09-10T09:40:44.861Z,100453.56
2022-09-10T09:43:34.139Z,100451.09
2022-09-10T09:46:01.982Z,100443.94
2022-09-10T09:48:37.891Z,100442.88
2022-09-10T09:51:04.790Z,100449.16
2022-09-10T09:53:31.282Z,100451.28
2022-09-10T09:56:03.879Z,100449.84
2022-09-10T09:58:33.580Z,100447.22
2022-09-10T10:01:06.911Z,100442.47
2022-09-10T10:03:37.514Z,100440.41
2022-09-10T10:06:09.454Z,100448.97
2022-09-10T10:08:41.343Z,100444.91
2022-09-10T10:11:08.911Z,100444.31
2022-09-10T10:13:43.033Z,100446.47
2022-09-10T10:16:17.326Z,100441.72
2022-09-10T10:18:45.259Z,100441.88
2022-09-10T10:21:16.428Z,100448.88
2022-09-10T10:23:43.781Z,100449.84
2022-09-10T10:26:26.148Z,100438.00
2022-09-10T10:28:59.892Z,100442.53
2022-09-10T10:31:42.149Z,100429.56
2022-09-10T10:34:54.879Z,100435.25
2022-09-10T10:37:56.744Z,100430.66
2022-09-10T10:40:33.753Z,100432.53
2022-09-10T10:43:20.146Z,100431.47
2022-09-10T10:45:56.070Z,100433.72
2022-09-10T10:48:43.382Z,100426.63
2022-09-10T10:51:20.437Z,100430.41
2022-09-10T10:54:03.057Z,100434.44
2022-09-10T10:56:37.680Z,100433.00
2022-09-10T10:59:26.755Z,100431.34
2022-09-10T11:02:00.974Z,100436.44
2022-09-10T11:04:47.227Z,100435.00
2022-09-10T11:07:28.049Z,100426.25
2022-09-10T11:10:06.065Z,100434.44
2022-09-10T11:12:47.357Z,100436.09
2022-09-10T11:15:52.544Z,100437.75
2022-09-10T11:18:42.750Z,100429.09
2022-09-10T11:21:17.148Z,100431.34
2022-09-10T11:23:54.974Z,100424.34
2022-09-10T11:26:34.781Z,100431.81
2022-09-10T11:29:34.546Z,100431.94
2022-09-10T11:32:26.975Z,100428.97
2022-09-10T11:35:02.410Z,100429.31
2022-09-10T11:37:51.002Z,100433.22
2022-09-10T11:40:31.237Z,100429.16
2022-09-10T11:43:04.088Z,100427.84
2022-09-10T11:45:47.757Z,100425.69
2022-09-10T11:48:29.070Z,100427.94
2022-09-10T11:51:01.187Z,100427.72
2022-09-10T11:53:30.387Z,100426.38
2022-09-10T11:56:11.794Z,100430.88
2022-09-10T11:58:41.174Z,100428.72
2022-09-10T12:01:30.273Z,100420.97
2022-09-10T12:04:10.639Z,100433.69
2022-09-10T12:06:52.312Z,100433.28
2022-09-10T12:09:34.803Z,100430.16
2022-09-10T12:12:15.298Z,100427.03
2022-09-10T12:14:42.257Z,100434.25
2022-09-10T12:17:23.516Z,100425.63
2022-09-10T12:19:54.734Z,100422.50
2022-09-10T12:22:33.328Z,100415.28
2022-09-10T12:25:33.608Z,100426.41
2022-09-10T12:28:03.777Z,100420.75
2022-09-10T12:30:58.885Z,100422.00
2022-09-10T12:33:26.506Z,100417.44
2022-09-10T12:35:52.948Z,100422.50
2022-09-10T12:38:50.188Z,100421.25
2022-09-10T12:41:22.812Z,100422.16
2022-09-10T12:43:49.183Z,100415.94
2022-09-10T12:46:17.641Z,100411.56
2022-09-10T12:48:51.458Z,100420.16
2022-09-10T12:51:21.584Z,100416.88
2022-09-10T12:54:24.234Z,100418.03
2022-09-10T12:57:08.199Z,100420.53
2022-09-10T12:59:53.206Z,100414.00
2022-09-10T13:02:27.893Z,100417.91
2022-09-10T13:04:58.567Z,100422.63
2022-09-10T13:07:36.957Z,100424.09
2022-09-10T13:10:21.140Z,100412.13
2022-09-10T13:12:55.095Z,100415.47
2022-09-10T13:15:24.774Z,100420.56
2022-09-10T13:17:54.401Z,100411.88
2022-09-10T13:20:23.679Z,100418.53
2022-09-10T13:22:57.962Z,100411.25
2022-09-10T13:25:42.691Z,100407.78
2022-09-10T13:28:30.710Z,100410.09
2022-09-10T13:31:11.867Z,100413.75
2022-09-10T13:33:56.750Z,100403.16
2022-09-10T13:36:33.190Z,100398.84
2022-09-10T13:39:27.024Z,100401.66
2022-09-10T13:41:59.899Z,100405.00
2022-09-10T13:44:45.445Z,100405.34
2022-09-10T13:47:16.791Z,100409.53
2022-09-10T13:50:05.840Z,100402.97
2022-09-10T13:52:37.429Z,100405.50
2022-09-10T13:55:08.024Z,100405.50
2022-09-10T13:57:47.537Z,100406.94
2022-09-10T14:00:17.080Z,100409.19
2022-09-10T14:02:49.300Z,100397.66
2022-09-10T14:05:27.384Z,100409.75
2022-09-10T14:08:01.635Z,100411.69
2022-09-10T14:10:28.682Z,100403.19
2022-09-10T14:12:57.360Z,100400.97
2022-09-10T14:15:29.328Z,100407.88
2022-09-10T14:17:59.280Z,100405.97
2022-09-10T14:20:30.528Z,100406.22
2022-09-10T14:23:12.849Z,100400.97
2022-09-10T14:25:42.466Z,100413.91
2022-09-10T14:28:20.837Z,100403.72
2022-09-10T14:30:49.388Z,100405.66
2022-09-10T14:33:42.167Z,100408.16
2022-09-10T14:36:33.494Z,100413.66
2022-09-10T14:39:15.099Z,100415.59
2022-09-10T14:41:42.035Z,100414.19
2022-09-10T14:44:23.861Z,100422.44
2022-09-10T14:47:10.645Z,100422.41
2022-09-10T14:49:41.366Z,100418.50
2022-09-10T14:52:11.124Z,100427.25
2022-09-10T14:54:37.850Z,100413.16
2022-09-10T14:57:10.034Z,100416.94
2022-09-10T14:59:38.838Z,100421.31
2022-09-10T15:02:28.653Z,100423.72
2022-09-10T15:04:55.431Z,100436.03
2022-09-10T15:07:23.709Z,100422.50
2022-09-10T15:09:53.027Z,100434.53
2022-09-10T15:12:24.678Z,100439.75
2022-09-10T15:14:51.934Z,100440.22
2022-09-10T15:17:18.857Z,100430.59
2022-09-10T15:19:46.980Z,100428.97
2022-09-10T15:22:20.940Z,100436.63
2022-09-10T15:25:08.646Z,100429.97
2022-09-10T15:27:34.332Z,100437.63
2022-09-10T15:30:00.898Z,100433.75
2022-09-10T15:32:27.288Z,100428.22
2022-09-10T15:34:53.902Z,100432.56
2022-09-10T15:37:22.347Z,100436.91
2022-09-10T15:39:48.811Z,100433.59
2022-09-10T15:42:15.541Z,100438.78
2022-09-10T15:44:41.963Z,100434.63
2022-09-10T15:47:08.380Z,100440.66
2022-09-10T15:49:35.429Z,100444.50
2022-09-10T15:52:02.561Z,100450.47
2022-09-10T15:54:29.081Z,100443.28
2022-09-10T15:56:55.520Z,100444.06
2022-09-10T15:59:23.281Z,100447.59
2022-09-10T16:01:50.193Z,100442.88
2022-09-10T16:04:16.795Z,100441.97
2022-09-10T16:06:43.776Z,100442.75
2022-09-10T16:09:12.804Z,100449.00
2022-09-10T16:11:41.630Z,100449.47
2022-09-10T16:14:11.832Z,100460.13
2022-09-10T16:16:39.202Z,100461.19
2022-09-10T16:19:05.924Z,100459.78
2022-09-10T16:21:35.089Z,100457.31
2022-09-10T16:24:01.866Z,100457.84
2022-09-10T16:26:37.131Z,100467.13
2022-09-10T16:29:06.973Z,100468.47
2022-09-10T16:31:35.826Z,100471.13
2022-09-10T16:34:04.903Z,100479.03
2022-09-10T16:36:33.660Z,100485.28
2022-09-10T16:39:01.718Z,100492.38
2022-09-10T16:41:29.382Z,100496.69
2022-09-10T16:43:58.451Z,100488.38
2022-09-10T16:46:26.244Z,100493.78
2022-09-10T16:48:54.208Z,100503.59
2022-09-10T16:51:25.372Z,100504.06
2022-09-10T16:53:57.150Z,100503.25
2022-09-10T16:56:25.346Z,100501.28
2022-09-10T16:58:51.934Z,100503.44
2022-09-10T17:01:18.734Z,100511.31
2022-09-10T17:03:54.614Z,100516.22
2022-09-10T17:06:26.789Z,100520.31
2022-09-10T17:08:55.198Z,100523.47
2022-09-10T17:11:22.804Z,100521.25
2022-09-10T17:13:50.963Z,100528.31
2022-09-10T17:16:26.654Z,100522.75
2022-09-10T17:19:03.853Z,100523.25
2022-09-10T17:21:32.053Z,100529.69
2022-09-10T17:23:59.256Z,100520.34
2022-09-10T17:26:27.042Z,100531.19
2022-09-10T17:29:01.959Z,100534.16
2022-09-10T17:31:29.645Z,100526.13
2022-09-10T17:33:57.125Z,100524.13
2022-09-10T17:36:25.313Z,100531.41
2022-09-10T17:38:53.654Z,100536.78
2022-09-10T17:41:21.522Z,100540.00
2022-09-10T17:43:48.490Z,100536.34
2022-09-10T17:46:18.135Z,100543.97
2022-09-10T17:48:45.742Z,100548.25
2022-09-10T17:51:15.352Z,100547.09
2022-09-10T17:53:42.393Z,100547.78
2022-09-10T17:56:11.539Z,100551.84
2022-09-10T17:58:38.351Z,100552.56
2022-09-10T18:01:13.910Z,100559.09
2022-09-10T18:03:40.817Z,100561.75
2022-09-10T18:06:10.239Z,100572.09
2022-09-10T18:08:38.109Z,100568.75
2022-09-10T18:11:10.019Z,100574.47
2022-09-10T18:13:37.158Z,100578.53
2022-09-10T18:16:16.844Z,100581.50
2022-09-10T18:18:45.960Z,100584.09
2022-09-10T18:21:19.418Z,100586.72
2022-09-10T18:23:56.275Z,100591.84
2022-09-10T18:26:25.027Z,100595.56
2022-09-10T18:28:56.855Z,100597.31
2022-09-10T18:31:25.088Z,100597.22
2022-09-10T18:33:53.623Z,100594.59
2022-09-10T18:36:20.606Z,100613.63
2022-09-10T18:38:47.431Z,100611.59
2022-09-10T18:41:24.732Z,100611.19
2022-09-10T18:43:53.509Z,100617.38
2022-09-10T18:46:20.927Z,100624.38
2022-09-10T18:48:48.191Z,100633.03
2022-09-10T18:51:16.670Z,100638.16
2022-09-10T18:53:45.222Z,100643.00
2022-09-10T18:56:18.094Z,100645.16
2022-09-10T18:58:56.065Z,100645.59
2022-09-10T19:01:24.044Z,100650.94
2022-09-10T19:03:50.914Z,100658.78
2022-09-10T19:06:20.105Z,100666.59
2022-09-10T19:08:55.231Z,100653.66
2022-09-10T19:11:24.406Z,100670.72
2022-09-10T19:13:53.730Z,100671.19
2022-09-10T19:16:22.499Z,100672.13
2022-09-10T19:18:51.038Z,100673.88
2022-09-10T19:21:20.105Z,100676.47
2022-09-10T19:23:47.654Z,100690.81
2022-09-10T19:26:14.326Z,100685.19
2022-09-10T19:28:40.782Z,100695.97
2022-09-10T19:31:08.672Z,100698.53
2022-09-10T19:33:39.466Z,100695.63
2022-09-10T19:36:08.330Z,100687.31
2022-09-10T19:38:37.738Z,100682.78
2022-09-10T19:41:13.053Z,100689.50
2022-09-10T19:43:41.029Z,100690.44
2022-09-10T19:46:12.823Z,100694.66
2022-09-10T19:48:40.118Z,100687.16
2022-09-10T19:51:10.456Z,100691.41
2022-09-10T19:53:37.941Z,100685.78
2022-09-10T19:56:04.454Z,100698.81
2022-09-10T19:58:30.882Z,100692.13
2022-09-10T20:00:57.358Z,100700.78
2022-09-10T20:03:23.745Z,100702.06
2022-09-10T20:05:50.163Z,100707.97
2022-09-10T20:08:16.594Z,100707.59
2022-09-10T20:10:51.877Z,100714.06
2022-09-10T20:13:18.438Z,100718.31
2022-09-10T20:15:45.611Z,100717.72
2022-09-10T20:18:12.187Z,100722.78
2022-09-10T20:20:38.673Z,100723.00
2022-09-10T20:23:05.066Z,100724.28
2022-09-10T20:25:31.940Z,100722.81
2022-09-10T20:27:58.750Z,100734.97
2022-09-10T20:30:25.358Z,100740.06
2022-09-10T20:32:51.722Z,100730.63
2022-09-10T20:35:18.228Z,100738.44
2022-09-10T20:37:47.804Z,100741.81
2022-09-10T20:40:16.929Z,100735.34
2022-09-10T20:42:43.472Z,100740.63
2022-09-10T20:45:10.973Z,100735.84
2022-09-10T20:47:42.950Z,100730.22
2022-09-10T20:50:11.495Z,100741.56
2022-09-10T20:52:38.014Z,100752.06
2022-09-10T20:55:05.876Z,100751.66
2022-09-10T20:57:32.417Z,100747.50
2022-09-10T20:59:58.955Z,100749.59
2022-09-10T21:02:26.345Z,100757.34
2022-09-10T21:04:52.838Z,100754.88
2022-09-10T21:07:20.194Z,100759.47
2022-09-10T21:09:46.666Z,100760.75
2022-09-10T21:12:13.123Z,100757.16
2022-09-10T21:14:39.573Z,100759.31
2022-09-10T21:17:06.104Z,100759.31
2022-09-10T21:19:32.490Z,100760.56
2022-09-10T21:21:58.869Z,100751.78
2022-09-10T21:24:27.926Z,100761.00
2022-09-10T21:26:54.957Z,100764.13
2022-09-10T21:29:22.370Z,100765.63
2022-09-10T21:31:50.679Z,100763.94
2022-09-10T21:34:17.475Z,100771.53
2022-09-10T21:36:44.009Z,100773.63
2022-09-10T21:39:15.653Z,100770.28
2022-09-10T21:41:44.903Z,100773.44
2022-09-10T21:44:14.329Z,100771.13
2022-09-10T21:46:44.966Z,100778.44
2022-09-10T21:49:11.821Z,100780.53
2022-09-10T21:51:38.454Z,100780.75
2022-09-10T21:54:05.262Z,100779.09
2022-09-10T21:56:32.102Z,100779.28
2022-09-10T21:59:00.382Z,100791.25
2022-09-10T22:01:30.124Z,100784.72
2022-09-10T22:03:59.549Z,100785.16
2022-09-10T22:06:31.289Z,100786.22
2022-09-10T22:09:00.271Z,100782.88
2022-09-10T22:11:34.123Z,100785.81
2022-09-10T22:14:02.971Z,100789.19
2022-09-10T22:16:33.813Z,100794.19
2022-09-10T22:19:03.314Z,100797.34
2022-09-10T22:21:30.458Z,100797.97
2022-09-10T22:23:57.026Z,100802.19
2022-09-10T22:26:28.274Z,100806.38
2022-09-10T22:28:57.094Z,100808.47
2022-09-10T22:31:25.439Z,100814.97
2022-09-10T22:33:57.347Z,100819.78
2022-09-10T22:36:26.621Z,100828.56
2022-09-10T22:38:59.303Z,100833.63
2022-09-10T22:41:27.142Z,100826.28
2022-09-10T22:43:53.937Z,100835.69
2022-09-10T22:46:21.413Z,100828.19
2022-09-10T22:48:47.948Z,100839.44
2022-09-10T22:51:17.993Z,100831.94
2022-09-10T22:53:45.515Z,100834.22
2022-09-10T22:56:13.674Z,100842.78
2022-09-10T22:58:40.898Z,100843.38
2022-09-10T23:01:10.689Z,100844.63
2022-09-10T23:03:37.759Z,100852.56
2022-09-10T23:06:16.393Z,100855.50
2022-09-10T23:08:44.597Z,100860.72
2022-09-10T23:11:21.002Z,100858.19
2022-09-10T23:13:50.149Z,100865.94
2022-09-10T23:16:19.508Z,100859.88
2022-09-10T23:18:51.767Z,100870.31
2022-09-10T23:21:19.454Z,100864.66
2022-09-10T23:23:48.085Z,100866.75
2022-09-10T23:26:15.713Z,100867.34
2022-09-10T23:28:42.405Z,100872.16
2022-09-10T23:31:30.004Z,100870.69
2022-09-10T23:34:07.586Z,100865.66
2022-09-10T23:36:37.071Z,100867.94
2022-09-10T23:39:07.063Z,100875.25
2022-09-10T23:41:34.617Z,100879.41
2022-09-10T23:44:01.158Z,100867.06
2022-09-10T23:46:27.594Z,100876.69
2022-09-10T23:48:54.703Z,100881.47
2022-09-10T23:51:21.113Z,100876.47
2022-09-10T23:53:48.484Z,100876.88
2022-09-10T23:56:17.268Z,100884.38
2022-09-10T23:58:44.439Z,100887.69
